sensor_id;sensor_type;location;lat;lon;timestamp;temperature;humidity
44573;DHT22;31762;45.420;10.072;2022-10-16T00:02:07;17.60;99.90
44573;DHT22;31762;45.420;10.072;2022-10-16T00:07:09;17.60;99.90
44573;DHT22;31762;45.420;10.072;2022-10-16T00:12:11;17.70;99.90
44573;DHT22;31762;45.420;10.072;2022-10-16T00:17:13;17.90;99.90
44573;DHT22;31762;45.420;10.072;2022-10-16T00:22:14;17.90;99.90
44573;DHT22;31762;45.420;10.072;2022-10-16T00:27:16;17.70;99.90
44573;DHT22;31762;45.420;10.072;2022-10-16T00:32:19;17.80;99.90
44573;DHT22;31762;45.420;10.072;2022-10-16T00:37:21;17.90;99.90
44573;DHT22;31762;45.420;10.072;2022-10-16T00:42:22;17.80;99.90
44573;DHT22;31762;45.420;10.072;2022-10-16T00:47:39;17.90;99.90
44573;DHT22;31762;45.420;10.072;2022-10-16T00:52:44;17.80;99.90
44573;DHT22;31762;45.420;10.072;2022-10-16T00:57:48;17.90;99.90
44573;DHT22;31762;45.420;10.072;2022-10-16T01:02:59;18.00;99.90
44573;DHT22;31762;45.420;10.072;2022-10-16T01:08:17;18.10;99.90
44573;DHT22;31762;45.420;10.072;2022-10-16T01:13:34;17.90;99.90
44573;DHT22;31762;45.420;10.072;2022-10-16T01:18:37;17.90;99.90
44573;DHT22;31762;45.420;10.072;2022-10-16T01:34:18;17.90;99.90
44573;DHT22;31762;45.420;10.072;2022-10-16T01:39:24;17.90;99.90
44573;DHT22;31762;45.420;10.072;2022-10-16T01:44:31;17.70;99.90
44573;DHT22;31762;45.420;10.072;2022-10-16T01:49:35;17.60;99.90
44573;DHT22;31762;45.420;10.072;2022-10-16T01:54:41;17.70;99.90
44573;DHT22;31762;45.420;10.072;2022-10-16T01:59:50;17.70;99.90
44573;DHT22;31762;45.420;10.072;2022-10-16T02:05:16;17.80;99.90
44573;DHT22;31762;45.420;10.072;2022-10-16T02:10:19;17.70;99.90
44573;DHT22;31762;45.420;10.072;2022-10-16T02:15:22;17.70;99.90
44573;DHT22;31762;45.420;10.072;2022-10-16T02:20:27;17.50;99.90
44573;DHT22;31762;45.420;10.072;2022-10-16T02:25:37;17.60;99.90
44573;DHT22;31762;45.420;10.072;2022-10-16T02:30:57;17.50;99.90
44573;DHT22;31762;45.420;10.072;2022-10-16T02:36:00;17.50;99.90
44573;DHT22;31762;45.420;10.072;2022-10-16T02:41:02;17.50;99.90
44573;DHT22;31762;45.420;10.072;2022-10-16T02:46:04;17.40;99.90
44573;DHT22;31762;45.420;10.072;2022-10-16T02:51:06;17.40;99.90
44573;DHT22;31762;45.420;10.072;2022-10-16T02:56:08;17.50;99.90
44573;DHT22;31762;45.420;10.072;2022-10-16T03:01:10;17.50;99.90
44573;DHT22;31762;45.420;10.072;2022-10-16T03:06:11;17.60;99.90
44573;DHT22;31762;45.420;10.072;2022-10-16T03:11:13;17.70;99.90
44573;DHT22;31762;45.420;10.072;2022-10-16T03:16:15;17.60;99.90
44573;DHT22;31762;45.420;10.072;2022-10-16T03:21:17;17.70;99.90
44573;DHT22;31762;45.420;10.072;2022-10-16T03:26:18;17.70;99.90
44573;DHT22;31762;45.420;10.072;2022-10-16T03:31:20;17.70;99.90
44573;DHT22;31762;45.420;10.072;2022-10-16T03:36:22;17.50;99.90
44573;DHT22;31762;45.420;10.072;2022-10-16T03:41:24;17.60;99.90
44573;DHT22;31762;45.420;10.072;2022-10-16T03:46:25;17.50;99.90
44573;DHT22;31762;45.420;10.072;2022-10-16T03:51:27;17.60;99.90
44573;DHT22;31762;45.420;10.072;2022-10-16T03:56:29;17.90;99.90
44573;DHT22;31762;45.420;10.072;2022-10-16T04:01:31;17.70;99.90
44573;DHT22;31762;45.420;10.072;2022-10-16T04:06:32;17.90;99.90
44573;DHT22;31762;45.420;10.072;2022-10-16T04:11:34;17.70;99.90
44573;DHT22;31762;45.420;10.072;2022-10-16T04:16:36;17.40;99.90
44573;DHT22;31762;45.420;10.072;2022-10-16T04:21:38;17.50;99.90
44573;DHT22;31762;45.420;10.072;2022-10-16T04:26:39;17.60;99.90
44573;DHT22;31762;45.420;10.072;2022-10-16T04:31:41;17.50;99.90
44573;DHT22;31762;45.420;10.072;2022-10-16T04:36:43;17.50;99.90
44573;DHT22;31762;45.420;10.072;2022-10-16T04:41:44;17.60;99.90
44573;DHT22;31762;45.420;10.072;2022-10-16T04:46:47;17.50;99.90
44573;DHT22;31762;45.420;10.072;2022-10-16T04:51:49;17.20;99.90
44573;DHT22;31762;45.420;10.072;2022-10-16T04:56:50;17.50;99.90
44573;DHT22;31762;45.420;10.072;2022-10-16T05:01:52;17.50;99.90
44573;DHT22;31762;45.420;10.072;2022-10-16T05:06:54;17.40;99.90
44573;DHT22;31762;45.420;10.072;2022-10-16T05:11:56;17.50;99.90
44573;DHT22;31762;45.420;10.072;2022-10-16T05:16:59;17.40;99.90
44573;DHT22;31762;45.420;10.072;2022-10-16T05:22:01;17.30;99.90
44573;DHT22;31762;45.420;10.072;2022-10-16T05:27:03;17.60;99.90
44573;DHT22;31762;45.420;10.072;2022-10-16T05:32:04;17.60;99.90
44573;DHT22;31762;45.420;10.072;2022-10-16T05:37:06;17.50;99.90
44573;DHT22;31762;45.420;10.072;2022-10-16T05:42:08;17.60;99.90
44573;DHT22;31762;45.420;10.072;2022-10-16T05:47:09;17.60;99.90
44573;DHT22;31762;45.420;10.072;2022-10-16T05:52:11;17.50;99.90
44573;DHT22;31762;45.420;10.072;2022-10-16T05:57:13;17.70;99.90
44573;DHT22;31762;45.420;10.072;2022-10-16T06:02:15;17.70;99.90
44573;DHT22;31762;45.420;10.072;2022-10-16T06:07:17;17.60;99.90
44573;DHT22;31762;45.420;10.072;2022-10-16T06:12:19;17.70;99.90
44573;DHT22;31762;45.420;10.072;2022-10-16T06:17:21;17.70;99.90
44573;DHT22;31762;45.420;10.072;2022-10-16T06:22:23;17.90;99.90
44573;DHT22;31762;45.420;10.072;2022-10-16T06:27:24;17.80;99.90
44573;DHT22;31762;45.420;10.072;2022-10-16T06:32:27;17.70;99.90
44573;DHT22;31762;45.420;10.072;2022-10-16T06:37:29;17.90;99.90
44573;DHT22;31762;45.420;10.072;2022-10-16T06:42:30;18.00;99.90
44573;DHT22;31762;45.420;10.072;2022-10-16T06:47:32;17.90;99.90
44573;DHT22;31762;45.420;10.072;2022-10-16T06:52:34;17.80;99.90
44573;DHT22;31762;45.420;10.072;2022-10-16T06:57:36;17.90;99.90
44573;DHT22;31762;45.420;10.072;2022-10-16T07:02:37;18.20;99.90
44573;DHT22;31762;45.420;10.072;2022-10-16T07:07:39;18.10;99.90
44573;DHT22;31762;45.420;10.072;2022-10-16T07:12:41;17.90;99.90
44573;DHT22;31762;45.420;10.072;2022-10-16T07:17:43;17.90;99.90
44573;DHT22;31762;45.420;10.072;2022-10-16T07:22:44;18.30;99.90
44573;DHT22;31762;45.420;10.072;2022-10-16T07:27:46;18.60;99.90
44573;DHT22;31762;45.420;10.072;2022-10-16T07:32:48;18.40;99.90
44573;DHT22;31762;45.420;10.072;2022-10-16T07:37:49;18.60;99.90
44573;DHT22;31762;45.420;10.072;2022-10-16T07:42:51;18.80;99.90
44573;DHT22;31762;45.420;10.072;2022-10-16T07:47:53;19.10;99.90
44573;DHT22;31762;45.420;10.072;2022-10-16T07:52:55;19.40;99.90
44573;DHT22;31762;45.420;10.072;2022-10-16T07:57:56;19.40;99.90
44573;DHT22;31762;45.420;10.072;2022-10-16T08:02:59;19.60;99.90
44573;DHT22;31762;45.420;10.072;2022-10-16T08:08:02;19.70;99.90
44573;DHT22;31762;45.420;10.072;2022-10-16T08:13:04;19.90;99.90
44573;DHT22;31762;45.420;10.072;2022-10-16T08:18:05;20.00;99.90
44573;DHT22;31762;45.420;10.072;2022-10-16T08:23:07;20.10;99.90
44573;DHT22;31762;45.420;10.072;2022-10-16T08:28:10;20.20;99.90
44573;DHT22;31762;45.420;10.072;2022-10-16T08:33:12;20.10;99.90
44573;DHT22;31762;45.420;10.072;2022-10-16T08:38:14;20.70;99.90
44573;DHT22;31762;45.420;10.072;2022-10-16T08:43:39;21.00;99.90
44573;DHT22;31762;45.420;10.072;2022-10-16T08:48:49;21.00;99.90
44573;DHT22;31762;45.420;10.072;2022-10-16T08:53:55;21.30;99.90
44573;DHT22;31762;45.420;10.072;2022-10-16T08:58:58;21.40;99.90
44573;DHT22;31762;45.420;10.072;2022-10-16T09:20:58;21.80;99.90
44573;DHT22;31762;45.420;10.072;2022-10-16T09:25:58;22.00;99.90
44573;DHT22;31762;45.420;10.072;2022-10-16T09:31:00;22.10;99.90
44573;DHT22;31762;45.420;10.072;2022-10-16T09:36:03;22.40;99.90
44573;DHT22;31762;45.420;10.072;2022-10-16T09:41:24;22.50;99.90
44573;DHT22;31762;45.420;10.072;2022-10-16T09:46:34;22.40;99.90
44573;DHT22;31762;45.420;10.072;2022-10-16T09:51:37;22.70;99.90
44573;DHT22;31762;45.420;10.072;2022-10-16T09:56:39;22.90;99.90
44573;DHT22;31762;45.420;10.072;2022-10-16T10:01:44;23.00;99.90
44573;DHT22;31762;45.420;10.072;2022-10-16T10:06:56;23.10;99.90
44573;DHT22;31762;45.420;10.072;2022-10-16T10:12:02;23.30;99.90
44573;DHT22;31762;45.420;10.072;2022-10-16T10:17:21;23.70;99.90
44573;DHT22;31762;45.420;10.072;2022-10-16T10:22:32;23.70;99.90
44573;DHT22;31762;45.420;10.072;2022-10-16T10:54:50;24.40;99.90
44573;DHT22;31762;45.420;10.072;2022-10-16T11:00:16;24.10;99.90
44573;DHT22;31762;45.420;10.072;2022-10-16T11:05:39;24.30;99.90
44573;DHT22;31762;45.420;10.072;2022-10-16T11:10:50;24.80;99.90
44573;DHT22;31762;45.420;10.072;2022-10-16T11:16:01;25.10;99.90
44573;DHT22;31762;45.420;10.072;2022-10-16T11:21:10;25.30;99.90
44573;DHT22;31762;45.420;10.072;2022-10-16T11:26:34;25.20;99.90
44573;DHT22;31762;45.420;10.072;2022-10-16T11:31:40;25.20;99.90
44573;DHT22;31762;45.420;10.072;2022-10-16T11:42:16;25.60;99.90
44573;DHT22;31762;45.420;10.072;2022-10-16T11:47:28;25.70;99.90
44573;DHT22;31762;45.420;10.072;2022-10-16T11:58:29;25.20;99.90
44573;DHT22;31762;45.420;10.072;2022-10-16T12:03:46;24.80;99.90
44573;DHT22;31762;45.420;10.072;2022-10-16T12:08:53;25.00;99.90
44573;DHT22;31762;45.420;10.072;2022-10-16T12:19:15;25.70;99.90
44573;DHT22;31762;45.420;10.072;2022-10-16T12:24:38;26.00;99.90
44573;DHT22;31762;45.420;10.072;2022-10-16T12:29:44;25.20;99.90
44573;DHT22;31762;45.420;10.072;2022-10-16T12:34:47;25.40;99.90
44573;DHT22;31762;45.420;10.072;2022-10-16T12:39:54;26.00;99.90
44573;DHT22;31762;45.420;10.072;2022-10-16T12:44:57;25.50;99.90
44573;DHT22;31762;45.420;10.072;2022-10-16T12:49:59;25.40;99.90
44573;DHT22;31762;45.420;10.072;2022-10-16T12:55:15;25.50;99.90
44573;DHT22;31762;45.420;10.072;2022-10-16T13:22:24;24.50;99.90
44573;DHT22;31762;45.420;10.072;2022-10-16T13:32:50;24.60;99.90
44573;DHT22;31762;45.420;10.072;2022-10-16T13:38:16;24.80;99.90
44573;DHT22;31762;45.420;10.072;2022-10-16T13:43:21;25.10;99.90
44573;DHT22;31762;45.420;10.072;2022-10-16T13:48:23;25.50;99.90
44573;DHT22;31762;45.420;10.072;2022-10-16T13:53:25;24.80;99.90
44573;DHT22;31762;45.420;10.072;2022-10-16T13:58:27;24.80;99.90
44573;DHT22;31762;45.420;10.072;2022-10-16T14:03:30;25.10;99.90
44573;DHT22;31762;45.420;10.072;2022-10-16T14:08:32;25.20;99.90
44573;DHT22;31762;45.420;10.072;2022-10-16T14:13:44;25.30;99.90
44573;DHT22;31762;45.420;10.072;2022-10-16T14:19:00;24.70;99.90
44573;DHT22;31762;45.420;10.072;2022-10-16T14:24:25;24.40;99.90
44573;DHT22;31762;45.420;10.072;2022-10-16T14:29:29;24.70;99.90
44573;DHT22;31762;45.420;10.072;2022-10-16T14:34:36;24.50;99.90
44573;DHT22;31762;45.420;10.072;2022-10-16T14:39:39;24.60;99.90
44573;DHT22;31762;45.420;10.072;2022-10-16T14:44:41;24.40;99.90
44573;DHT22;31762;45.420;10.072;2022-10-16T14:49:43;24.10;99.90
44573;DHT22;31762;45.420;10.072;2022-10-16T14:54:48;24.00;99.90
44573;DHT22;31762;45.420;10.072;2022-10-16T14:59:50;23.70;99.90
44573;DHT22;31762;45.420;10.072;2022-10-16T15:04:52;23.80;99.90
44573;DHT22;31762;45.420;10.072;2022-10-16T15:09:54;23.50;99.90
44573;DHT22;31762;45.420;10.072;2022-10-16T15:14:55;23.50;99.90
44573;DHT22;31762;45.420;10.072;2022-10-16T15:19:57;23.20;99.90
44573;DHT22;31762;45.420;10.072;2022-10-16T15:24:59;23.20;99.90
44573;DHT22;31762;45.420;10.072;2022-10-16T15:30:01;23.10;99.90
44573;DHT22;31762;45.420;10.072;2022-10-16T15:35:02;23.10;99.90
44573;DHT22;31762;45.420;10.072;2022-10-16T15:40:05;23.10;99.90
44573;DHT22;31762;45.420;10.072;2022-10-16T15:45:08;23.10;99.90
44573;DHT22;31762;45.420;10.072;2022-10-16T15:50:11;22.90;99.90
44573;DHT22;31762;45.420;10.072;2022-10-16T15:55:14;22.80;99.90
44573;DHT22;31762;45.420;10.072;2022-10-16T16:00:18;22.80;99.90
44573;DHT22;31762;45.420;10.072;2022-10-16T16:05:21;22.70;99.90
44573;DHT22;31762;45.420;10.072;2022-10-16T16:10:23;22.70;99.90
44573;DHT22;31762;45.420;10.072;2022-10-16T16:15:25;22.60;99.90
44573;DHT22;31762;45.420;10.072;2022-10-16T16:20:27;22.30;99.90
44573;DHT22;31762;45.420;10.072;2022-10-16T16:25:29;22.20;99.90
44573;DHT22;31762;45.420;10.072;2022-10-16T16:30:30;21.90;99.90
44573;DHT22;31762;45.420;10.072;2022-10-16T16:35:32;21.80;99.90
44573;DHT22;31762;45.420;10.072;2022-10-16T16:40:34;21.60;99.90
44573;DHT22;31762;45.420;10.072;2022-10-16T16:45:36;21.50;99.90
44573;DHT22;31762;45.420;10.072;2022-10-16T16:50:37;21.30;99.90
44573;DHT22;31762;45.420;10.072;2022-10-16T16:55:39;21.10;99.90
44573;DHT22;31762;45.420;10.072;2022-10-16T17:00:47;21.10;99.90
44573;DHT22;31762;45.420;10.072;2022-10-16T17:06:06;21.10;99.90
44573;DHT22;31762;45.420;10.072;2022-10-16T17:11:27;21.10;99.90
44573;DHT22;31762;45.420;10.072;2022-10-16T17:16:34;21.00;99.90
44573;DHT22;31762;45.420;10.072;2022-10-16T17:21:36;21.10;99.90
44573;DHT22;31762;45.420;10.072;2022-10-16T17:26:38;21.10;99.90
44573;DHT22;31762;45.420;10.072;2022-10-16T17:31:40;21.10;99.90
44573;DHT22;31762;45.420;10.072;2022-10-16T17:36:42;21.10;99.90
44573;DHT22;31762;45.420;10.072;2022-10-16T17:41:44;21.00;99.90
44573;DHT22;31762;45.420;10.072;2022-10-16T17:46:48;20.80;99.90
44573;DHT22;31762;45.420;10.072;2022-10-16T17:51:51;20.50;99.90
44573;DHT22;31762;45.420;10.072;2022-10-16T17:56:53;20.40;99.90
44573;DHT22;31762;45.420;10.072;2022-10-16T18:01:55;20.40;99.90
44573;DHT22;31762;45.420;10.072;2022-10-16T18:06:57;20.10;99.90
44573;DHT22;31762;45.420;10.072;2022-10-16T18:11:59;20.10;99.90
44573;DHT22;31762;45.420;10.072;2022-10-16T18:17:00;20.00;99.90
44573;DHT22;31762;45.420;10.072;2022-10-16T18:22:02;19.90;99.90
44573;DHT22;31762;45.420;10.072;2022-10-16T18:27:04;19.80;99.90
44573;DHT22;31762;45.420;10.072;2022-10-16T18:32:06;19.90;99.90
44573;DHT22;31762;45.420;10.072;2022-10-16T18:37:07;19.90;99.90
44573;DHT22;31762;45.420;10.072;2022-10-16T18:42:09;19.90;99.90
44573;DHT22;31762;45.420;10.072;2022-10-16T18:47:11;19.80;99.90
44573;DHT22;31762;45.420;10.072;2022-10-16T18:52:13;19.70;99.90
44573;DHT22;31762;45.420;10.072;2022-10-16T18:57:14;19.70;99.90
44573;DHT22;31762;45.420;10.072;2022-10-16T19:02:16;19.50;99.90
44573;DHT22;31762;45.420;10.072;2022-10-16T19:07:18;19.50;99.90
44573;DHT22;31762;45.420;10.072;2022-10-16T19:12:19;19.60;99.90
44573;DHT22;31762;45.420;10.072;2022-10-16T19:17:21;19.60;99.90
44573;DHT22;31762;45.420;10.072;2022-10-16T19:22:23;19.40;99.90
44573;DHT22;31762;45.420;10.072;2022-10-16T19:27:25;19.60;99.90
44573;DHT22;31762;45.420;10.072;2022-10-16T19:32:27;19.60;99.90
44573;DHT22;31762;45.420;10.072;2022-10-16T19:37:29;19.50;99.90
44573;DHT22;31762;45.420;10.072;2022-10-16T19:42:31;19.40;99.90
44573;DHT22;31762;45.420;10.072;2022-10-16T19:47:32;19.20;99.90
44573;DHT22;31762;45.420;10.072;2022-10-16T19:52:35;19.40;99.90
44573;DHT22;31762;45.420;10.072;2022-10-16T19:57:37;19.20;99.90
44573;DHT22;31762;45.420;10.072;2022-10-16T20:02:39;19.00;99.90
44573;DHT22;31762;45.420;10.072;2022-10-16T20:07:41;19.10;99.90
44573;DHT22;31762;45.420;10.072;2022-10-16T20:12:43;19.00;99.90
44573;DHT22;31762;45.420;10.072;2022-10-16T20:17:44;18.90;99.90
44573;DHT22;31762;45.420;10.072;2022-10-16T20:22:46;19.00;99.90
44573;DHT22;31762;45.420;10.072;2022-10-16T20:27:48;19.00;99.90
44573;DHT22;31762;45.420;10.072;2022-10-16T20:32:50;19.00;99.90
44573;DHT22;31762;45.420;10.072;2022-10-16T20:37:51;18.90;99.90
44573;DHT22;31762;45.420;10.072;2022-10-16T20:42:53;18.90;99.90
44573;DHT22;31762;45.420;10.072;2022-10-16T20:47:55;18.90;99.90
44573;DHT22;31762;45.420;10.072;2022-10-16T20:52:58;18.90;99.90
44573;DHT22;31762;45.420;10.072;2022-10-16T20:58:00;19.00;99.90
44573;DHT22;31762;45.420;10.072;2022-10-16T21:03:01;19.30;99.90
44573;DHT22;31762;45.420;10.072;2022-10-16T21:08:03;19.20;99.90
44573;DHT22;31762;45.420;10.072;2022-10-16T21:13:05;19.10;99.90
44573;DHT22;31762;45.420;10.072;2022-10-16T21:18:07;19.40;99.90
44573;DHT22;31762;45.420;10.072;2022-10-16T21:23:10;19.10;99.90
44573;DHT22;31762;45.420;10.072;2022-10-16T21:28:12;19.10;99.90
44573;DHT22;31762;45.420;10.072;2022-10-16T21:33:14;19.40;99.90
44573;DHT22;31762;45.420;10.072;2022-10-16T21:38:15;19.20;99.90
44573;DHT22;31762;45.420;10.072;2022-10-16T21:43:18;19.50;99.90
44573;DHT22;31762;45.420;10.072;2022-10-16T21:48:19;19.60;99.90
44573;DHT22;31762;45.420;10.072;2022-10-16T21:53:21;19.50;99.90
44573;DHT22;31762;45.420;10.072;2022-10-16T21:58:23;19.30;99.90
44573;DHT22;31762;45.420;10.072;2022-10-16T22:03:24;19.10;99.90
44573;DHT22;31762;45.420;10.072;2022-10-16T22:08:26;19.20;99.90
44573;DHT22;31762;45.420;10.072;2022-10-16T22:13:28;19.50;99.90
44573;DHT22;31762;45.420;10.072;2022-10-16T22:18:30;19.30;99.90
44573;DHT22;31762;45.420;10.072;2022-10-16T22:23:32;19.10;99.90
44573;DHT22;31762;45.420;10.072;2022-10-16T22:28:35;19.00;99.90
44573;DHT22;31762;45.420;10.072;2022-10-16T22:33:37;19.00;99.90
44573;DHT22;31762;45.420;10.072;2022-10-16T22:38:39;18.60;99.90
44573;DHT22;31762;45.420;10.072;2022-10-16T22:43:43;18.50;99.90
44573;DHT22;31762;45.420;10.072;2022-10-16T22:48:46;18.40;99.90
44573;DHT22;31762;45.420;10.072;2022-10-16T22:53:48;18.40;99.90
44573;DHT22;31762;45.420;10.072;2022-10-16T22:58:50;18.30;99.90
44573;DHT22;31762;45.420;10.072;2022-10-16T23:03:52;18.20;99.90
44573;DHT22;31762;45.420;10.072;2022-10-16T23:08:55;18.10;99.90
44573;DHT22;31762;45.420;10.072;2022-10-16T23:13:57;18.00;99.90
44573;DHT22;31762;45.420;10.072;2022-10-16T23:18:59;17.90;99.90
44573;DHT22;31762;45.420;10.072;2022-10-16T23:24:01;17.70;99.90
44573;DHT22;31762;45.420;10.072;2022-10-16T23:29:03;17.70;99.90
44573;DHT22;31762;45.420;10.072;2022-10-16T23:34:05;17.80;99.90
44573;DHT22;31762;45.420;10.072;2022-10-16T23:39:07;18.00;99.90
44573;DHT22;31762;45.420;10.072;2022-10-16T23:44:08;17.70;99.90
44573;DHT22;31762;45.420;10.072;2022-10-16T23:49:10;17.90;99.90
44573;DHT22;31762;45.420;10.072;2022-10-16T23:54:12;17.80;99.90
44573;DHT22;31762;45.420;10.072;2022-10-16T23:59:14;17.80;99.90
